sensor_id;sensor_type;location;lat;lon;timestamp;pressure;altitude;pressure_sealevel;temperature;humidity
8294;BME280;4185;41.506;24.938;2023-04-30T00:01:24;93279.47;;;9.78;88.08
8294;BME280;4185;41.506;24.938;2023-04-30T00:03:50;93266.63;;;9.73;87.61
8294;BME280;4185;41.506;24.938;2023-04-30T00:06:17;93270.31;;;9.70;88.49
8294;BME280;4185;41.506;24.938;2023-04-30T00:08:44;93268.31;;;9.71;88.87
8294;BME280;4185;41.506;24.938;2023-04-30T00:11:11;93262.41;;;9.72;89.23
8294;BME280;4185;41.506;24.938;2023-04-30T00:13:37;93269.53;;;9.64;89.19
8294;BME280;4185;41.506;24.938;2023-04-30T00:16:04;93265.81;;;9.62;89.66
8294;BME280;4185;41.506;24.938;2023-04-30T00:18:32;93263.59;;;9.60;90.11
8294;BME280;4185;41.506;24.938;2023-04-30T00:20:59;93266.28;;;9.55;90.07
8294;BME280;4185;41.506;24.938;2023-04-30T00:23:26;93271.44;;;9.53;89.85
8294;BME280;4185;41.506;24.938;2023-04-30T00:25:53;93269.16;;;9.46;89.91
8294;BME280;4185;41.506;24.938;2023-04-30T00:28:19;93271.84;;;9.40;90.59
8294;BME280;4185;41.506;24.938;2023-04-30T00:30:46;93267.38;;;9.37;90.59
8294;BME280;4185;41.506;24.938;2023-04-30T00:33:13;93276.81;;;9.47;90.55
8294;BME280;4185;41.506;24.938;2023-04-30T00:35:42;93277.59;;;9.53;89.95
8294;BME280;4185;41.506;24.938;2023-04-30T00:38:08;93269.97;;;9.57;89.68
8294;BME280;4185;41.506;24.938;2023-04-30T00:40:36;93273.16;;;9.56;89.07
8294;BME280;4185;41.506;24.938;2023-04-30T00:43:03;93270.72;;;9.58;88.83
8294;BME280;4185;41.506;24.938;2023-04-30T00:45:30;93269.97;;;9.57;88.99
8294;BME280;4185;41.506;24.938;2023-04-30T00:47:57;93269.97;;;9.52;89.07
8294;BME280;4185;41.506;24.938;2023-04-30T00:50:24;93265.47;;;9.43;88.34
8294;BME280;4185;41.506;24.938;2023-04-30T00:52:52;93258.97;;;9.35;89.35
8294;BME280;4185;41.506;24.938;2023-04-30T00:55:19;93253.81;;;9.37;88.44
8294;BME280;4185;41.506;24.938;2023-04-30T00:57:46;93259.25;;;9.37;88.43
8294;BME280;4185;41.506;24.938;2023-04-30T01:00:13;93254.09;;;9.39;88.42
8294;BME280;4185;41.506;24.938;2023-04-30T01:02:40;93246.94;;;9.36;88.22
8294;BME280;4185;41.506;24.938;2023-04-30T01:05:07;93248.13;;;9.35;88.42
8294;BME280;4185;41.506;24.938;2023-04-30T01:07:34;93254.34;;;9.41;88.34
8294;BME280;4185;41.506;24.938;2023-04-30T01:10:05;93248.66;;;9.39;88.55
8294;BME280;4185;41.506;24.938;2023-04-30T01:12:36;93238.06;;;9.36;87.60
8294;BME280;4185;41.506;24.938;2023-04-30T01:15:09;93250.84;;;9.35;86.92
8294;BME280;4185;41.506;24.938;2023-04-30T01:17:44;93243.63;;;9.21;87.03
8294;BME280;4185;41.506;24.938;2023-04-30T01:20:13;93250.97;;;9.15;87.42
8294;BME280;4185;41.506;24.938;2023-04-30T01:22:45;93249.41;;;9.03;86.03
8294;BME280;4185;41.506;24.938;2023-04-30T01:28:17;93244.25;;;8.74;86.31
8294;BME280;4185;41.506;24.938;2023-04-30T01:30:44;93251.16;;;8.75;86.82
8294;BME280;4185;41.506;24.938;2023-04-30T01:33:12;93245.03;;;8.80;87.07
8294;BME280;4185;41.506;24.938;2023-04-30T01:38:38;93252.19;;;8.83;87.46
8294;BME280;4185;41.506;24.938;2023-04-30T01:41:15;93253.72;;;8.90;87.30
8294;BME280;4185;41.506;24.938;2023-04-30T01:43:54;93257.41;;;8.87;87.71
8294;BME280;4185;41.506;24.938;2023-04-30T01:46:26;93261.06;;;8.84;87.19
8294;BME280;4185;41.506;24.938;2023-04-30T01:49:02;93264.78;;;8.86;87.27
8294;BME280;4185;41.506;24.938;2023-04-30T01:51:38;93267.50;;;8.86;87.23
8294;BME280;4185;41.506;24.938;2023-04-30T01:54:14;93264.75;;;8.81;87.07
8294;BME280;4185;41.506;24.938;2023-04-30T01:56:46;93264.13;;;8.71;87.44
8294;BME280;4185;41.506;24.938;2023-04-30T01:59:17;93255.19;;;8.59;87.01
8294;BME280;4185;41.506;24.938;2023-04-30T02:01:44;93256.09;;;8.51;87.69
8294;BME280;4185;41.506;24.938;2023-04-30T02:04:11;93250.38;;;8.43;88.33
8294;BME280;4185;41.506;24.938;2023-04-30T02:06:38;93246.59;;;8.35;89.26
8294;BME280;4185;41.506;24.938;2023-04-30T02:09:05;93255.84;;;8.29;89.16
8294;BME280;4185;41.506;24.938;2023-04-30T02:11:32;93245.16;;;8.20;88.89
8294;BME280;4185;41.506;24.938;2023-04-30T02:13:59;93252.81;;;8.21;89.85
8294;BME280;4185;41.506;24.938;2023-04-30T02:16:27;93255.63;;;8.27;89.67
8294;BME280;4185;41.506;24.938;2023-04-30T02:18:54;93256.88;;;8.31;89.43
8294;BME280;4185;41.506;24.938;2023-04-30T02:21:20;93247.88;;;8.40;89.81
8294;BME280;4185;41.506;24.938;2023-04-30T02:23:47;93256.78;;;8.46;89.43
8294;BME280;4185;41.506;24.938;2023-04-30T02:26:14;93257.38;;;8.55;88.56
8294;BME280;4185;41.506;24.938;2023-04-30T02:28:41;93251.69;;;8.53;89.42
8294;BME280;4185;41.506;24.938;2023-04-30T02:31:07;93248.50;;;8.55;89.57
8294;BME280;4185;41.506;24.938;2023-04-30T02:33:36;93249.69;;;8.48;89.93
8294;BME280;4185;41.506;24.938;2023-04-30T02:36:03;93253.56;;;8.42;90.18
8294;BME280;4185;41.506;24.938;2023-04-30T02:38:29;93248.56;;;8.35;89.70
8294;BME280;4185;41.506;24.938;2023-04-30T02:40:56;93258.56;;;8.29;90.62
8294;BME280;4185;41.506;24.938;2023-04-30T02:43:23;93248.69;;;8.26;91.41
8294;BME280;4185;41.506;24.938;2023-04-30T02:45:50;93251.13;;;8.24;90.96
8294;BME280;4185;41.506;24.938;2023-04-30T02:48:16;93254.28;;;8.22;91.70
8294;BME280;4185;41.506;24.938;2023-04-30T02:50:44;93247.59;;;8.18;91.04
8294;BME280;4185;41.506;24.938;2023-04-30T02:53:11;93245.31;;;8.11;91.72
8294;BME280;4185;41.506;24.938;2023-04-30T02:55:38;93251.78;;;8.19;92.15
8294;BME280;4185;41.506;24.938;2023-04-30T02:58:05;93254.50;;;8.19;91.77
8294;BME280;4185;41.506;24.938;2023-04-30T03:00:31;93251.88;;;8.24;91.44
8294;BME280;4185;41.506;24.938;2023-04-30T03:02:58;93255.03;;;8.23;91.28
8294;BME280;4185;41.506;24.938;2023-04-30T03:05:25;93245.50;;;8.27;90.83
8294;BME280;4185;41.506;24.938;2023-04-30T03:07:53;93253.16;;;8.29;90.48
8294;BME280;4185;41.506;24.938;2023-04-30T03:10:20;93250.19;;;8.27;90.84
8294;BME280;4185;41.506;24.938;2023-04-30T03:12:47;93255.03;;;8.23;90.65
8294;BME280;4185;41.506;24.938;2023-04-30T03:15:13;93259.91;;;8.19;90.75
8294;BME280;4185;41.506;24.938;2023-04-30T03:17:40;93257.19;;;8.19;90.92
8294;BME280;4185;41.506;24.938;2023-04-30T03:20:08;93251.94;;;8.10;90.71
8294;BME280;4185;41.506;24.938;2023-04-30T03:22:35;93257.28;;;8.04;91.54
8294;BME280;4185;41.506;24.938;2023-04-30T03:25:04;93257.56;;;8.06;91.34
8294;BME280;4185;41.506;24.938;2023-04-30T03:27:31;93261.69;;;8.02;91.76
8294;BME280;4185;41.506;24.938;2023-04-30T03:29:57;93267.16;;;8.07;91.49
8294;BME280;4185;41.506;24.938;2023-04-30T03:32:24;93264.25;;;8.11;90.84
8294;BME280;4185;41.506;24.938;2023-04-30T03:34:51;93264.25;;;8.11;91.67
8294;BME280;4185;41.506;24.938;2023-04-30T03:37:18;93265.19;;;8.08;91.54
8294;BME280;4185;41.506;24.938;2023-04-30T03:39:44;93265.19;;;8.08;90.76
8294;BME280;4185;41.506;24.938;2023-04-30T03:42:13;93269.59;;;8.05;90.54
8294;BME280;4185;41.506;24.938;2023-04-30T03:44:40;93268.50;;;7.97;89.83
8294;BME280;4185;41.506;24.938;2023-04-30T03:47:07;93271.16;;;7.92;91.24
8294;BME280;4185;41.506;24.938;2023-04-30T03:49:33;93275.34;;;7.93;90.92
8294;BME280;4185;41.506;24.938;2023-04-30T03:52:00;93278.78;;;7.93;91.18
8294;BME280;4185;41.506;24.938;2023-04-30T03:54:27;93269.66;;;7.91;90.46
8294;BME280;4185;41.506;24.938;2023-04-30T03:56:54;93271.81;;;7.87;91.01
8294;BME280;4185;41.506;24.938;2023-04-30T03:59:22;93273.25;;;7.82;90.59
8294;BME280;4185;41.506;24.938;2023-04-30T04:01:49;93271.03;;;7.81;90.32
8294;BME280;4185;41.506;24.938;2023-04-30T04:04:16;93275.19;;;7.82;90.04
8294;BME280;4185;41.506;24.938;2023-04-30T04:06:43;93272.78;;;7.84;90.37
8294;BME280;4185;41.506;24.938;2023-04-30T04:09:10;93278.34;;;7.95;90.25
8294;BME280;4185;41.506;24.938;2023-04-30T04:11:36;93286.44;;;7.95;90.87
8294;BME280;4185;41.506;24.938;2023-04-30T04:14:03;93288.41;;;7.94;90.54
8294;BME280;4185;41.506;24.938;2023-04-30T04:16:31;93283.94;;;7.91;90.77
8294;BME280;4185;41.506;24.938;2023-04-30T04:18:58;93293.94;;;7.85;91.12
8294;BME280;4185;41.506;24.938;2023-04-30T04:21:25;93293.13;;;7.79;91.32
8294;BME280;4185;41.506;24.938;2023-04-30T04:23:53;93298.13;;;7.86;91.82
8294;BME280;4185;41.506;24.938;2023-04-30T04:26:20;93286.84;;;7.88;91.84
8294;BME280;4185;41.506;24.938;2023-04-30T04:28:49;93288.59;;;7.91;91.94
8294;BME280;4185;41.506;24.938;2023-04-30T04:31:16;93294.75;;;7.91;91.46
8294;BME280;4185;41.506;24.938;2023-04-30T04:33:46;93294.47;;;7.89;91.84
8294;BME280;4185;41.506;24.938;2023-04-30T04:36:12;93289.28;;;7.86;92.27
8294;BME280;4185;41.506;24.938;2023-04-30T04:38:40;93284.41;;;7.90;92.46
8294;BME280;4185;41.506;24.938;2023-04-30T04:41:08;93290.06;;;7.92;93.29
8294;BME280;4185;41.506;24.938;2023-04-30T04:43:34;93287.91;;;7.96;92.98
8294;BME280;4185;41.506;24.938;2023-04-30T04:46:01;93294.56;;;7.95;92.50
8294;BME280;4185;41.506;24.938;2023-04-30T04:48:28;93297.72;;;7.93;93.33
8294;BME280;4185;41.506;24.938;2023-04-30T04:50:56;93298.06;;;8.01;93.53
8294;BME280;4185;41.506;24.938;2023-04-30T04:53:23;93298.63;;;8.05;93.83
8294;BME280;4185;41.506;24.938;2023-04-30T04:55:50;93296.97;;;8.13;93.93
8294;BME280;4185;41.506;24.938;2023-04-30T04:58:17;93292.31;;;8.13;93.44
8294;BME280;4185;41.506;24.938;2023-04-30T05:00:43;93298.72;;;8.16;93.67
8294;BME280;4185;41.506;24.938;2023-04-30T05:03:10;93293.88;;;8.20;94.07
8294;BME280;4185;41.506;24.938;2023-04-30T05:05:38;93298.31;;;8.23;94.42
8294;BME280;4185;41.506;24.938;2023-04-30T05:08:06;93301.34;;;8.25;94.34
8294;BME280;4185;41.506;24.938;2023-04-30T05:10:33;93294.97;;;8.28;94.11
8294;BME280;4185;41.506;24.938;2023-04-30T05:13:00;93298.22;;;8.32;94.02
8294;BME280;4185;41.506;24.938;2023-04-30T05:15:27;93306.59;;;8.34;93.41
8294;BME280;4185;41.506;24.938;2023-04-30T05:17:54;93310.59;;;8.38;93.71
8294;BME280;4185;41.506;24.938;2023-04-30T05:20:20;93305.91;;;8.39;93.50
8294;BME280;4185;41.506;24.938;2023-04-30T05:22:47;93309.44;;;8.45;93.54
8294;BME280;4185;41.506;24.938;2023-04-30T05:25:16;93314.63;;;8.48;93.50
8294;BME280;4185;41.506;24.938;2023-04-30T05:27:42;93301.69;;;8.58;93.33
8294;BME280;4185;41.506;24.938;2023-04-30T05:30:10;93307.59;;;8.82;92.78
8294;BME280;4185;41.506;24.938;2023-04-30T05:32:37;93300.41;;;9.05;92.02
8294;BME280;4185;41.506;24.938;2023-04-30T05:35:04;93305.97;;;9.21;91.63
8294;BME280;4185;41.506;24.938;2023-04-30T05:37:31;93305.03;;;9.30;90.54
8294;BME280;4185;41.506;24.938;2023-04-30T05:39:58;93306.28;;;9.34;90.75
8294;BME280;4185;41.506;24.938;2023-04-30T05:42:26;93303.97;;;9.53;89.88
8294;BME280;4185;41.506;24.938;2023-04-30T05:44:53;93303.56;;;9.65;89.04
8294;BME280;4185;41.506;24.938;2023-04-30T05:47:20;93304.97;;;9.55;88.38
8294;BME280;4185;41.506;24.938;2023-04-30T05:49:47;93304.00;;;9.58;89.32
8294;BME280;4185;41.506;24.938;2023-04-30T05:52:14;93305.03;;;9.66;89.94
8294;BME280;4185;41.506;24.938;2023-04-30T05:54:41;93301.78;;;9.62;89.65
8294;BME280;4185;41.506;24.938;2023-04-30T05:57:08;93304.72;;;9.59;90.53
8294;BME280;4185;41.506;24.938;2023-04-30T05:59:36;93310.59;;;9.88;89.24
8294;BME280;4185;41.506;24.938;2023-04-30T06:02:03;93298.69;;;10.23;88.29
8294;BME280;4185;41.506;24.938;2023-04-30T06:04:30;93299.53;;;10.51;87.26
8294;BME280;4185;41.506;24.938;2023-04-30T06:06:57;93297.38;;;10.71;85.42
8294;BME280;4185;41.506;24.938;2023-04-30T06:09:24;93296.66;;;10.93;82.87
8294;BME280;4185;41.506;24.938;2023-04-30T06:11:50;93301.63;;;11.11;82.69
8294;BME280;4185;41.506;24.938;2023-04-30T06:14:18;93298.66;;;11.15;80.08
8294;BME280;4185;41.506;24.938;2023-04-30T06:16:48;93296.19;;;11.11;80.90
8294;BME280;4185;41.506;24.938;2023-04-30T06:19:15;93298.16;;;11.27;80.90
8294;BME280;4185;41.506;24.938;2023-04-30T06:21:42;93290.25;;;11.51;79.47
8294;BME280;4185;41.506;24.938;2023-04-30T06:24:09;93291.97;;;11.71;79.33
8294;BME280;4185;41.506;24.938;2023-04-30T06:26:35;93289.72;;;11.91;78.60
8294;BME280;4185;41.506;24.938;2023-04-30T06:29:02;93287.94;;;12.05;77.64
8294;BME280;4185;41.506;24.938;2023-04-30T06:31:29;93283.75;;;11.98;77.61
8294;BME280;4185;41.506;24.938;2023-04-30T06:33:57;93280.53;;;11.94;77.08
8294;BME280;4185;41.506;24.938;2023-04-30T06:36:24;93282.00;;;12.01;75.81
8294;BME280;4185;41.506;24.938;2023-04-30T06:38:51;93279.72;;;12.16;75.01
8294;BME280;4185;41.506;24.938;2023-04-30T06:41:17;93270.78;;;12.26;75.28
8294;BME280;4185;41.506;24.938;2023-04-30T06:43:45;93272.72;;;12.43;76.75
8294;BME280;4185;41.506;24.938;2023-04-30T06:46:12;93276.31;;;12.62;76.01
8294;BME280;4185;41.506;24.938;2023-04-30T06:48:39;93271.09;;;12.64;75.43
8294;BME280;4185;41.506;24.938;2023-04-30T06:51:07;93262.97;;;12.58;75.23
8294;BME280;4185;41.506;24.938;2023-04-30T06:53:34;93264.63;;;12.67;75.07
8294;BME280;4185;41.506;24.938;2023-04-30T06:56:01;93268.56;;;12.77;74.74
8294;BME280;4185;41.506;24.938;2023-04-30T06:58:28;93262.63;;;12.73;74.11
8294;BME280;4185;41.506;24.938;2023-04-30T07:00:55;93263.16;;;12.66;73.91
8294;BME280;4185;41.506;24.938;2023-04-30T07:03:22;93264.50;;;12.89;73.96
8294;BME280;4185;41.506;24.938;2023-04-30T07:05:49;93265.41;;;13.08;73.06
8294;BME280;4185;41.506;24.938;2023-04-30T07:08:20;93263.28;;;13.25;73.39
8294;BME280;4185;41.506;24.938;2023-04-30T07:10:46;93270.38;;;13.39;71.54
8294;BME280;4185;41.506;24.938;2023-04-30T07:13:13;93261.16;;;13.42;69.44
8294;BME280;4185;41.506;24.938;2023-04-30T07:15:40;93263.47;;;13.62;69.57
8294;BME280;4185;41.506;24.938;2023-04-30T07:18:07;93264.28;;;13.81;66.54
8294;BME280;4185;41.506;24.938;2023-04-30T07:20:34;93263.13;;;13.95;66.62
8294;BME280;4185;41.506;24.938;2023-04-30T07:23:01;93268.75;;;14.03;65.28
8294;BME280;4185;41.506;24.938;2023-04-30T07:25:29;93263.25;;;13.84;65.71
8294;BME280;4185;41.506;24.938;2023-04-30T07:27:56;93262.72;;;13.86;61.18
8294;BME280;4185;41.506;24.938;2023-04-30T07:30:23;93271.53;;;13.97;63.73
8294;BME280;4185;41.506;24.938;2023-04-30T07:32:49;93269.03;;;14.23;63.52
8294;BME280;4185;41.506;24.938;2023-04-30T07:35:16;93265.78;;;14.49;61.53
8294;BME280;4185;41.506;24.938;2023-04-30T07:37:43;93269.94;;;14.74;61.18
8294;BME280;4185;41.506;24.938;2023-04-30T07:40:11;93262.94;;;14.92;58.43
8294;BME280;4185;41.506;24.938;2023-04-30T07:42:39;93261.00;;;15.05;54.65
8294;BME280;4185;41.506;24.938;2023-04-30T07:45:07;93265.03;;;14.86;54.61
8294;BME280;4185;41.506;24.938;2023-04-30T07:47:34;93258.25;;;14.74;53.49
8294;BME280;4185;41.506;24.938;2023-04-30T07:50:01;93265.03;;;14.86;53.75
8294;BME280;4185;41.506;24.938;2023-04-30T07:52:28;93266.38;;;14.98;52.85
8294;BME280;4185;41.506;24.938;2023-04-30T07:54:55;93263.91;;;15.13;52.49
8294;BME280;4185;41.506;24.938;2023-04-30T07:57:22;93265.81;;;15.18;52.50
8294;BME280;4185;41.506;24.938;2023-04-30T07:59:52;93267.22;;;15.06;51.70
8294;BME280;4185;41.506;24.938;2023-04-30T08:02:19;93264.06;;;15.02;52.92
8294;BME280;4185;41.506;24.938;2023-04-30T08:04:46;93267.63;;;14.97;53.00
8294;BME280;4185;41.506;24.938;2023-04-30T08:07:13;93277.31;;;14.98;53.46
8294;BME280;4185;41.506;24.938;2023-04-30T08:09:40;93271.31;;;14.99;52.54
8294;BME280;4185;41.506;24.938;2023-04-30T08:12:07;93271.66;;;15.09;51.13
8294;BME280;4185;41.506;24.938;2023-04-30T08:14:34;93264.53;;;15.19;52.80
8294;BME280;4185;41.506;24.938;2023-04-30T08:17:02;93262.19;;;15.28;52.34
8294;BME280;4185;41.506;24.938;2023-04-30T08:19:29;93265.66;;;15.29;51.73
8294;BME280;4185;41.506;24.938;2023-04-30T08:21:57;93265.66;;;15.29;51.93
8294;BME280;4185;41.506;24.938;2023-04-30T08:24:24;93262.91;;;15.29;52.84
8294;BME280;4185;41.506;24.938;2023-04-30T08:26:51;93267.13;;;15.30;52.42
8294;BME280;4185;41.506;24.938;2023-04-30T08:29:18;93264.59;;;15.32;51.66
8294;BME280;4185;41.506;24.938;2023-04-30T08:31:44;93260.38;;;15.31;51.44
8294;BME280;4185;41.506;24.938;2023-04-30T08:34:12;93258.84;;;15.35;51.62
8294;BME280;4185;41.506;24.938;2023-04-30T08:36:39;93255.56;;;15.37;50.92
8294;BME280;4185;41.506;24.938;2023-04-30T08:39:06;93254.03;;;15.41;50.22
8294;BME280;4185;41.506;24.938;2023-04-30T08:41:33;93252.75;;;15.74;48.74
8294;BME280;4185;41.506;24.938;2023-04-30T08:44:02;93240.50;;;15.88;48.26
8294;BME280;4185;41.506;24.938;2023-04-30T08:46:30;93242.84;;;16.10;48.77
8294;BME280;4185;41.506;24.938;2023-04-30T08:48:57;93235.88;;;16.22;47.53
8294;BME280;4185;41.506;24.938;2023-04-30T08:51:26;93236.75;;;16.30;46.75
8294;BME280;4185;41.506;24.938;2023-04-30T08:53:54;93236.22;;;16.19;47.29
8294;BME280;4185;41.506;24.938;2023-04-30T08:56:21;93241.16;;;16.07;48.04
8294;BME280;4185;41.506;24.938;2023-04-30T08:58:47;93244.34;;;15.98;47.81
8294;BME280;4185;41.506;24.938;2023-04-30T09:01:15;93246.88;;;15.96;48.23
8294;BME280;4185;41.506;24.938;2023-04-30T09:03:42;93246.56;;;16.00;48.82
8294;BME280;4185;41.506;24.938;2023-04-30T09:06:08;93243.28;;;16.01;47.33
8294;BME280;4185;41.506;24.938;2023-04-30T09:08:44;93246.66;;;16.07;48.31
8294;BME280;4185;41.506;24.938;2023-04-30T09:11:22;93241.06;;;16.13;47.79
8294;BME280;4185;41.506;24.938;2023-04-30T09:13:50;93239.47;;;16.17;47.54
8294;BME280;4185;41.506;24.938;2023-04-30T09:16:18;93238.22;;;16.18;46.60
8294;BME280;4185;41.506;24.938;2023-04-30T09:18:45;93238.31;;;16.26;47.47
8294;BME280;4185;41.506;24.938;2023-04-30T09:21:12;93238.00;;;16.29;47.71
8294;BME280;4185;41.506;24.938;2023-04-30T09:23:55;93243.47;;;16.42;48.49
8294;BME280;4185;41.506;24.938;2023-04-30T09:26:26;93241.34;;;16.61;46.91
8294;BME280;4185;41.506;24.938;2023-04-30T09:28:54;93243.84;;;16.85;46.53
8294;BME280;4185;41.506;24.938;2023-04-30T09:31:22;93233.56;;;16.99;45.77
8294;BME280;4185;41.506;24.938;2023-04-30T09:33:48;93235.13;;;17.08;46.19
8294;BME280;4185;41.506;24.938;2023-04-30T09:36:15;93229.16;;;17.17;46.40
8294;BME280;4185;41.506;24.938;2023-04-30T09:38:42;93233.38;;;17.18;46.79
8294;BME280;4185;41.506;24.938;2023-04-30T09:41:22;93221.78;;;17.12;46.30
8294;BME280;4185;41.506;24.938;2023-04-30T09:43:49;93227.28;;;17.12;45.03
8294;BME280;4185;41.506;24.938;2023-04-30T09:46:18;93226.69;;;17.05;43.76
8294;BME280;4185;41.506;24.938;2023-04-30T09:48:45;93227.09;;;17.10;44.63
8294;BME280;4185;41.506;24.938;2023-04-30T09:51:13;93216.13;;;17.10;43.11
8294;BME280;4185;41.506;24.938;2023-04-30T09:53:41;93223.06;;;17.11;43.01
8294;BME280;4185;41.506;24.938;2023-04-30T09:56:10;93218.72;;;17.15;42.85
8294;BME280;4185;41.506;24.938;2023-04-30T09:58:42;93223.16;;;17.18;43.00
8294;BME280;4185;41.506;24.938;2023-04-30T10:01:10;93217.47;;;17.37;43.11
8294;BME280;4185;41.506;24.938;2023-04-30T10:03:38;93208.50;;;17.57;44.06
8294;BME280;4185;41.506;24.938;2023-04-30T10:06:06;93222.56;;;17.74;43.64
8294;BME280;4185;41.506;24.938;2023-04-30T10:08:38;93216.09;;;17.92;42.64
8294;BME280;4185;41.506;24.938;2023-04-30T10:11:07;93216.25;;;18.14;42.79
8294;BME280;4185;41.506;24.938;2023-04-30T10:13:39;93206.44;;;18.34;41.95
8294;BME280;4185;41.506;24.938;2023-04-30T10:16:11;93203.78;;;18.42;41.73
8294;BME280;4185;41.506;24.938;2023-04-30T10:18:45;93202.13;;;18.46;39.74
8294;BME280;4185;41.506;24.938;2023-04-30T10:21:15;93202.78;;;18.32;39.25
8294;BME280;4185;41.506;24.938;2023-04-30T10:23:43;93193.59;;;18.29;40.32
8294;BME280;4185;41.506;24.938;2023-04-30T10:26:10;93199.09;;;18.29;38.91
8294;BME280;4185;41.506;24.938;2023-04-30T10:28:39;93202.06;;;18.39;39.19
8294;BME280;4185;41.506;24.938;2023-04-30T10:31:06;93198.28;;;18.42;38.26
8294;BME280;4185;41.506;24.938;2023-04-30T10:33:40;93194.53;;;18.32;37.58
8294;BME280;4185;41.506;24.938;2023-04-30T10:36:20;93201.63;;;18.27;38.77
8294;BME280;4185;41.506;24.938;2023-04-30T10:38:47;93205.28;;;18.22;38.36
8294;BME280;4185;41.506;24.938;2023-04-30T10:41:18;93203.00;;;18.13;39.45
8294;BME280;4185;41.506;24.938;2023-04-30T10:43:46;93216.59;;;18.11;39.91
8294;BME280;4185;41.506;24.938;2023-04-30T10:46:21;93225.44;;;17.96;43.38
8294;BME280;4185;41.506;24.938;2023-04-30T10:48:48;93217.50;;;17.85;46.50
8294;BME280;4185;41.506;24.938;2023-04-30T10:51:15;93225.31;;;17.74;47.42
8294;BME280;4185;41.506;24.938;2023-04-30T10:53:42;93211.25;;;17.57;48.54
8294;BME280;4185;41.506;24.938;2023-04-30T10:56:09;93220.91;;;17.50;49.14
8294;BME280;4185;41.506;24.938;2023-04-30T10:58:38;93221.84;;;17.53;49.00
8294;BME280;4185;41.506;24.938;2023-04-30T11:01:07;93227.31;;;17.53;48.09
8294;BME280;4185;41.506;24.938;2023-04-30T11:03:36;93232.81;;;17.53;47.56
8294;BME280;4185;41.506;24.938;2023-04-30T11:06:08;93229.66;;;17.49;46.74
8294;BME280;4185;41.506;24.938;2023-04-30T11:08:38;93224.16;;;17.49;46.85
8294;BME280;4185;41.506;24.938;2023-04-30T11:11:07;93234.75;;;17.45;47.81
8294;BME280;4185;41.506;24.938;2023-04-30T11:13:38;93229.59;;;17.41;47.62
8294;BME280;4185;41.506;24.938;2023-04-30T11:16:07;93235.69;;;17.27;46.35
8294;BME280;4185;41.506;24.938;2023-04-30T11:18:40;93235.72;;;17.14;45.67
8294;BME280;4185;41.506;24.938;2023-04-30T11:21:08;93241.84;;;17.06;45.91
8294;BME280;4185;41.506;24.938;2023-04-30T11:23:35;93242.72;;;17.01;46.68
8294;BME280;4185;41.506;24.938;2023-04-30T11:26:02;93244.53;;;16.99;46.56
8294;BME280;4185;41.506;24.938;2023-04-30T11:28:31;93247.94;;;16.92;47.24
8294;BME280;4185;41.506;24.938;2023-04-30T11:30:59;93248.88;;;16.94;47.71
8294;BME280;4185;41.506;24.938;2023-04-30T11:33:29;93250.78;;;16.99;47.55
8294;BME280;4185;41.506;24.938;2023-04-30T11:35:57;93253.91;;;17.03;48.39
8294;BME280;4185;41.506;24.938;2023-04-30T11:38:26;93245.56;;;17.09;48.70
8294;BME280;4185;41.506;24.938;2023-04-30T11:40:53;93250.50;;;17.11;49.95
8294;BME280;4185;41.506;24.938;2023-04-30T11:43:21;93257.59;;;17.06;50.99
8294;BME280;4185;41.506;24.938;2023-04-30T11:46:12;93267.22;;;16.99;52.84
8294;BME280;4185;41.506;24.938;2023-04-30T11:48:44;93266.59;;;16.93;54.57
8294;BME280;4185;41.506;24.938;2023-04-30T11:51:16;93258.31;;;17.06;54.69
8294;BME280;4185;41.506;24.938;2023-04-30T11:53:45;93247.50;;;17.42;54.00
8294;BME280;4185;41.506;24.938;2023-04-30T11:56:13;93243.38;;;17.69;53.54
8294;BME280;4185;41.506;24.938;2023-04-30T11:58:40;93244.53;;;17.74;53.00
8294;BME280;4185;41.506;24.938;2023-04-30T12:01:07;93238.44;;;17.68;52.12
8294;BME280;4185;41.506;24.938;2023-04-30T12:03:40;93232.22;;;17.47;52.75
8294;BME280;4185;41.506;24.938;2023-04-30T12:06:10;93227.97;;;17.66;52.17
8294;BME280;4185;41.506;24.938;2023-04-30T12:08:40;93235.09;;;17.62;52.35
8294;BME280;4185;41.506;24.938;2023-04-30T12:11:18;93235.31;;;17.30;52.79
8294;BME280;4185;41.506;24.938;2023-04-30T12:13:49;93232.06;;;17.32;52.87
8294;BME280;4185;41.506;24.938;2023-04-30T12:16:16;93233.47;;;17.46;51.77
8294;BME280;4185;41.506;24.938;2023-04-30T12:18:44;93217.97;;;17.48;50.16
8294;BME280;4185;41.506;24.938;2023-04-30T12:21:12;93218.53;;;17.75;50.22
8294;BME280;4185;41.506;24.938;2023-04-30T12:23:39;93225.44;;;17.96;49.69
8294;BME280;4185;41.506;24.938;2023-04-30T12:26:06;93207.75;;;18.05;49.22
8294;BME280;4185;41.506;24.938;2023-04-30T12:28:33;93226.19;;;17.97;48.95
8294;BME280;4185;41.506;24.938;2023-04-30T12:31:00;93211.88;;;17.91;48.85
8294;BME280;4185;41.506;24.938;2023-04-30T12:33:29;93198.88;;;18.27;48.24
8294;BME280;4185;41.506;24.938;2023-04-30T12:35:56;93195.38;;;18.55;47.61
8294;BME280;4185;41.506;24.938;2023-04-30T12:38:26;93201.34;;;18.74;48.67
8294;BME280;4185;41.506;24.938;2023-04-30T12:40:52;93191.78;;;18.75;47.92
8294;BME280;4185;41.506;24.938;2023-04-30T12:43:19;93196.78;;;18.91;46.72
8294;BME280;4185;41.506;24.938;2023-04-30T12:45:48;93194.97;;;19.01;47.37
8294;BME280;4185;41.506;24.938;2023-04-30T12:48:17;93197.41;;;19.27;46.43
8294;BME280;4185;41.506;24.938;2023-04-30T12:50:51;93196.47;;;19.02;46.34
8294;BME280;4185;41.506;24.938;2023-04-30T12:53:18;93188.31;;;18.82;47.14
8294;BME280;4185;41.506;24.938;2023-04-30T12:56:08;93194.94;;;18.86;47.12
8294;BME280;4185;41.506;24.938;2023-04-30T12:58:35;93184.13;;;18.45;47.29
8294;BME280;4185;41.506;24.938;2023-04-30T13:01:02;93176.81;;;18.12;48.86
8294;BME280;4185;41.506;24.938;2023-04-30T13:03:28;93181.13;;;18.28;49.27
8294;BME280;4185;41.506;24.938;2023-04-30T13:05:55;93176.13;;;18.19;50.00
8294;BME280;4185;41.506;24.938;2023-04-30T13:08:22;93184.97;;;17.97;49.71
8294;BME280;4185;41.506;24.938;2023-04-30T13:10:49;93185.28;;;17.86;51.07
8294;BME280;4185;41.506;24.938;2023-04-30T13:13:17;93193.59;;;17.73;51.72
8294;BME280;4185;41.506;24.938;2023-04-30T13:15:45;93194.28;;;17.66;53.21
8294;BME280;4185;41.506;24.938;2023-04-30T13:18:12;93196.53;;;17.47;52.74
8294;BME280;4185;41.506;24.938;2023-04-30T13:20:40;93191.34;;;17.23;53.70
8294;BME280;4185;41.506;24.938;2023-04-30T13:23:08;93194.28;;;17.04;54.83
8294;BME280;4185;41.506;24.938;2023-04-30T13:25:36;93201.84;;;16.90;56.51